sensor_id;sensor_type;location;lat;lon;timestamp;pressure;altitude;pressure_sealevel;temperature;humidity
7986;BME280;4038;42.612;23.066;2022-09-06T00:01:23;93728.19;;;16.10;78.24
7986;BME280;4038;42.612;23.066;2022-09-06T00:03:48;93721.53;;;16.24;77.27
7986;BME280;4038;42.612;23.066;2022-09-06T00:06:17;93724.94;;;16.35;76.59
7986;BME280;4038;42.612;23.066;2022-09-06T00:08:44;93721.25;;;16.27;76.82
7986;BME280;4038;42.612;23.066;2022-09-06T00:11:10;93722.84;;;15.87;78.55
7986;BME280;4038;42.612;23.066;2022-09-06T00:13:36;93704.50;;;15.49;80.04
7986;BME280;4038;42.612;23.066;2022-09-06T00:16:10;93731.78;;;15.34;81.35
7986;BME280;4038;42.612;23.066;2022-09-06T00:18:36;93721.13;;;15.43;81.03
7986;BME280;4038;42.612;23.066;2022-09-06T00:21:02;93729.44;;;15.84;79.80
7986;BME280;4038;42.612;23.066;2022-09-06T00:23:28;93733.13;;;15.57;80.34
7986;BME280;4038;42.612;23.066;2022-09-06T00:26:00;93728.00;;;15.72;79.61
7986;BME280;4038;42.612;23.066;2022-09-06T00:28:26;93711.03;;;15.57;79.64
7986;BME280;4038;42.612;23.066;2022-09-06T00:30:51;93727.16;;;15.53;80.08
7986;BME280;4038;42.612;23.066;2022-09-06T00:33:17;93714.50;;;15.93;79.41
7986;BME280;4038;42.612;23.066;2022-09-06T00:35:42;93716.56;;;16.17;77.07
7986;BME280;4038;42.612;23.066;2022-09-06T00:38:11;93719.19;;;16.33;76.38
7986;BME280;4038;42.612;23.066;2022-09-06T00:40:37;93722.78;;;15.98;77.02
7986;BME280;4038;42.612;23.066;2022-09-06T00:43:03;93716.00;;;16.24;76.06
7986;BME280;4038;42.612;23.066;2022-09-06T00:45:29;93687.19;;;15.54;78.07
7986;BME280;4038;42.612;23.066;2022-09-06T00:47:56;93718.06;;;15.58;78.10
7986;BME280;4038;42.612;23.066;2022-09-06T00:50:23;93712.28;;;15.91;77.77
7986;BME280;4038;42.612;23.066;2022-09-06T00:52:50;93705.50;;;15.51;77.31
7986;BME280;4038;42.612;23.066;2022-09-06T00:55:17;93704.50;;;15.49;78.22
7986;BME280;4038;42.612;23.066;2022-09-06T00:57:42;93711.09;;;15.81;78.44
7986;BME280;4038;42.612;23.066;2022-09-06T01:00:11;93717.44;;;15.76;76.66
7986;BME280;4038;42.612;23.066;2022-09-06T01:02:36;93699.88;;;15.33;77.79
7986;BME280;4038;42.612;23.066;2022-09-06T01:05:03;93719.66;;;15.78;77.23
7986;BME280;4038;42.612;23.066;2022-09-06T01:07:57;93724.38;;;15.88;76.34
7986;BME280;4038;42.612;23.066;2022-09-06T01:13:13;93717.88;;;16.10;75.62
7986;BME280;4038;42.612;23.066;2022-09-06T01:26:40;93723.06;;;15.95;77.12
7986;BME280;4038;42.612;23.066;2022-09-06T01:29:17;93721.28;;;15.97;76.27
7986;BME280;4038;42.612;23.066;2022-09-06T01:31:52;93730.41;;;15.87;75.93
7986;BME280;4038;42.612;23.066;2022-09-06T01:34:38;93730.38;;;15.10;77.75
7986;BME280;4038;42.612;23.066;2022-09-06T01:37:12;93722.38;;;15.48;78.81
7986;BME280;4038;42.612;23.066;2022-09-06T01:39:39;93724.34;;;15.58;78.09
7986;BME280;4038;42.612;23.066;2022-09-06T01:42:31;93716.59;;;15.46;78.75
7986;BME280;4038;42.612;23.066;2022-09-06T01:45:20;93725.28;;;15.67;77.98
7986;BME280;4038;42.612;23.066;2022-09-06T01:48:08;93715.81;;;15.86;78.00
7986;BME280;4038;42.612;23.066;2022-09-06T01:50:45;93711.66;;;16.04;76.32
7986;BME280;4038;42.612;23.066;2022-09-06T02:04:16;93697.25;;;15.81;76.17
7986;BME280;4038;42.612;23.066;2022-09-06T02:06:49;93702.22;;;15.17;78.01
7986;BME280;4038;42.612;23.066;2022-09-06T02:09:20;93703.97;;;14.63;80.97
7986;BME280;4038;42.612;23.066;2022-09-06T02:11:51;93702.75;;;14.53;81.95
7986;BME280;4038;42.612;23.066;2022-09-06T02:14:23;93693.72;;;14.52;82.13
7986;BME280;4038;42.612;23.066;2022-09-06T02:16:52;93694.34;;;14.86;80.32
7986;BME280;4038;42.612;23.066;2022-09-06T02:19:41;93699.69;;;15.19;79.47
7986;BME280;4038;42.612;23.066;2022-09-06T02:22:11;93706.00;;;15.14;79.61
7986;BME280;4038;42.612;23.066;2022-09-06T02:24:41;93700.19;;;14.71;81.08
7986;BME280;4038;42.612;23.066;2022-09-06T02:27:08;93679.66;;;14.61;81.36
7986;BME280;4038;42.612;23.066;2022-09-06T02:29:34;93709.78;;;15.11;79.76
7986;BME280;4038;42.612;23.066;2022-09-06T02:32:03;93714.94;;;15.32;77.80
7986;BME280;4038;42.612;23.066;2022-09-06T02:34:30;93708.31;;;15.46;77.49
7986;BME280;4038;42.612;23.066;2022-09-06T02:36:55;93716.13;;;15.42;77.65
7986;BME280;4038;42.612;23.066;2022-09-06T02:39:21;93706.63;;;14.91;80.14
7986;BME280;4038;42.612;23.066;2022-09-06T02:41:47;93718.09;;;14.42;80.97
7986;BME280;4038;42.612;23.066;2022-09-06T02:44:13;93708.34;;;14.14;82.53
7986;BME280;4038;42.612;23.066;2022-09-06T02:46:39;93716.06;;;14.49;81.98
7986;BME280;4038;42.612;23.066;2022-09-06T02:49:05;93717.81;;;14.52;81.75
7986;BME280;4038;42.612;23.066;2022-09-06T02:51:35;93711.03;;;14.53;82.47
7986;BME280;4038;42.612;23.066;2022-09-06T02:54:01;93714.25;;;14.68;80.98
7986;BME280;4038;42.612;23.066;2022-09-06T02:56:26;93719.06;;;14.51;81.85
7986;BME280;4038;42.612;23.066;2022-09-06T02:58:51;93710.66;;;14.90;80.20
7986;BME280;4038;42.612;23.066;2022-09-06T03:01:17;93713.63;;;14.97;79.39
7986;BME280;4038;42.612;23.066;2022-09-06T03:03:42;93713.78;;;14.58;80.03
7986;BME280;4038;42.612;23.066;2022-09-06T03:06:08;93716.81;;;14.55;80.11
7986;BME280;4038;42.612;23.066;2022-09-06T03:08:33;93706.03;;;14.34;80.79
7986;BME280;4038;42.612;23.066;2022-09-06T03:11:00;93721.84;;;14.51;79.57
7986;BME280;4038;42.612;23.066;2022-09-06T03:13:26;93712.78;;;14.61;77.83
7986;BME280;4038;42.612;23.066;2022-09-06T03:15:54;93713.59;;;14.39;80.58
7986;BME280;4038;42.612;23.066;2022-09-06T03:18:20;93710.06;;;14.44;80.62
7986;BME280;4038;42.612;23.066;2022-09-06T03:20:49;93711.25;;;14.66;80.03
7986;BME280;4038;42.612;23.066;2022-09-06T03:23:15;93716.22;;;14.78;78.81
7986;BME280;4038;42.612;23.066;2022-09-06T03:25:41;93721.47;;;14.82;77.82
7986;BME280;4038;42.612;23.066;2022-09-06T03:28:07;93718.44;;;14.85;77.36
7986;BME280;4038;42.612;23.066;2022-09-06T03:30:32;93720.81;;;14.59;78.16
7986;BME280;4038;42.612;23.066;2022-09-06T03:32:58;93719.56;;;14.55;79.11
7986;BME280;4038;42.612;23.066;2022-09-06T03:35:23;93723.09;;;14.50;79.17
7986;BME280;4038;42.612;23.066;2022-09-06T03:37:49;93719.63;;;14.21;79.81
7986;BME280;4038;42.612;23.066;2022-09-06T03:40:14;93714.63;;;13.92;80.56
7986;BME280;4038;42.612;23.066;2022-09-06T03:42:40;93712.38;;;13.85;81.37
7986;BME280;4038;42.612;23.066;2022-09-06T03:45:05;93715.66;;;13.89;82.00
7986;BME280;4038;42.612;23.066;2022-09-06T03:47:31;93720.91;;;14.09;81.50
7986;BME280;4038;42.612;23.066;2022-09-06T03:49:57;93718.41;;;13.83;82.09
7986;BME280;4038;42.612;23.066;2022-09-06T03:52:22;93716.16;;;13.76;82.77
7986;BME280;4038;42.612;23.066;2022-09-06T03:54:48;93726.16;;;14.07;81.70
7986;BME280;4038;42.612;23.066;2022-09-06T03:57:13;93716.38;;;14.17;80.87
7986;BME280;4038;42.612;23.066;2022-09-06T03:59:38;93720.91;;;13.70;82.15
7986;BME280;4038;42.612;23.066;2022-09-06T04:02:04;93727.69;;;13.58;82.90
7986;BME280;4038;42.612;23.066;2022-09-06T04:04:30;93716.38;;;13.34;84.06
7986;BME280;4038;42.612;23.066;2022-09-06T04:06:56;93722.41;;;13.99;82.40
7986;BME280;4038;42.612;23.066;2022-09-06T04:09:21;93718.91;;;13.93;82.86
7986;BME280;4038;42.612;23.066;2022-09-06T04:11:47;93728.94;;;13.68;83.06
7986;BME280;4038;42.612;23.066;2022-09-06T04:14:12;93736.94;;;13.38;84.59
7986;BME280;4038;42.612;23.066;2022-09-06T04:16:38;93727.13;;;13.15;85.50
7986;BME280;4038;42.612;23.066;2022-09-06T04:19:03;93730.38;;;13.13;85.84
7986;BME280;4038;42.612;23.066;2022-09-06T04:21:29;93731.19;;;13.53;85.44
7986;BME280;4038;42.612;23.066;2022-09-06T04:23:55;93730.44;;;13.69;84.24
7986;BME280;4038;42.612;23.066;2022-09-06T04:26:20;93702.09;;;13.91;83.29
7986;BME280;4038;42.612;23.066;2022-09-06T04:28:46;93726.41;;;14.09;81.57
7986;BME280;4038;42.612;23.066;2022-09-06T04:31:11;93729.72;;;13.68;82.97
7986;BME280;4038;42.612;23.066;2022-09-06T04:33:37;93733.22;;;13.75;82.74
7986;BME280;4038;42.612;23.066;2022-09-06T04:36:05;93736.47;;;13.73;82.61
7986;BME280;4038;42.612;23.066;2022-09-06T04:38:35;93725.94;;;13.94;82.04
7986;BME280;4038;42.612;23.066;2022-09-06T04:41:01;93721.91;;;14.06;81.77
7986;BME280;4038;42.612;23.066;2022-09-06T04:43:27;93730.16;;;14.17;81.02
7986;BME280;4038;42.612;23.066;2022-09-06T04:45:52;93705.88;;;13.93;81.55
7986;BME280;4038;42.612;23.066;2022-09-06T04:48:18;93727.69;;;13.91;82.65
7986;BME280;4038;42.612;23.066;2022-09-06T04:50:43;93728.91;;;14.13;81.98
7986;BME280;4038;42.612;23.066;2022-09-06T04:53:09;93732.19;;;14.17;81.69
7986;BME280;4038;42.612;23.066;2022-09-06T04:55:35;93741.19;;;14.39;81.22
7986;BME280;4038;42.612;23.066;2022-09-06T04:58:02;93733.13;;;14.41;80.87
7986;BME280;4038;42.612;23.066;2022-09-06T05:00:29;93729.38;;;14.33;81.45
7986;BME280;4038;42.612;23.066;2022-09-06T05:02:56;93732.34;;;14.58;81.24
7986;BME280;4038;42.612;23.066;2022-09-06T05:05:22;93726.69;;;14.97;80.11
7986;BME280;4038;42.612;23.066;2022-09-06T05:07:52;93729.94;;;14.95;79.44
7986;BME280;4038;42.612;23.066;2022-09-06T05:10:17;93726.38;;;15.11;78.50
7986;BME280;4038;42.612;23.066;2022-09-06T05:12:43;93724.38;;;15.06;79.01
7986;BME280;4038;42.612;23.066;2022-09-06T05:15:08;93723.41;;;16.64;74.61
7986;BME280;4038;42.612;23.066;2022-09-06T05:17:34;93730.66;;;17.29;70.50
7986;BME280;4038;42.612;23.066;2022-09-06T05:19:59;93737.84;;;18.52;66.03
7986;BME280;4038;42.612;23.066;2022-09-06T05:22:28;93724.09;;;18.99;63.70
7986;BME280;4038;42.612;23.066;2022-09-06T05:24:53;93738.41;;;19.30;63.12
7986;BME280;4038;42.612;23.066;2022-09-06T05:27:19;93733.72;;;19.93;60.44
7986;BME280;4038;42.612;23.066;2022-09-06T05:29:44;93732.25;;;20.33;59.45
7986;BME280;4038;42.612;23.066;2022-09-06T05:32:09;93733.34;;;19.75;61.54
7986;BME280;4038;42.612;23.066;2022-09-06T05:34:35;93733.34;;;20.30;59.98
7986;BME280;4038;42.612;23.066;2022-09-06T05:37:00;93737.00;;;20.67;58.58
7986;BME280;4038;42.612;23.066;2022-09-06T05:39:26;93738.00;;;20.56;57.92
7986;BME280;4038;42.612;23.066;2022-09-06T05:41:51;93725.88;;;20.74;58.10
7986;BME280;4038;42.612;23.066;2022-09-06T05:44:17;93729.69;;;21.20;56.75
7986;BME280;4038;42.612;23.066;2022-09-06T05:46:43;93726.84;;;22.07;54.40
7986;BME280;4038;42.612;23.066;2022-09-06T05:49:10;93725.69;;;21.95;54.48
7986;BME280;4038;42.612;23.066;2022-09-06T05:51:36;93720.47;;;23.13;50.88
7986;BME280;4038;42.612;23.066;2022-09-06T05:54:01;93716.38;;;23.07;51.13
7986;BME280;4038;42.612;23.066;2022-09-06T05:56:27;93721.53;;;23.48;50.16
7986;BME280;4038;42.612;23.066;2022-09-06T05:58:53;93709.19;;;23.44;50.08
7986;BME280;4038;42.612;23.066;2022-09-06T06:01:24;93715.66;;;23.69;49.83
7986;BME280;4038;42.612;23.066;2022-09-06T06:03:58;93714.19;;;23.93;49.16
7986;BME280;4038;42.612;23.066;2022-09-06T06:06:26;93715.25;;;25.04;46.12
7986;BME280;4038;42.612;23.066;2022-09-06T06:08:52;93710.28;;;26.81;42.31
7986;BME280;4038;42.612;23.066;2022-09-06T06:11:18;93708.75;;;27.26;40.74
7986;BME280;4038;42.612;23.066;2022-09-06T06:13:44;93708.63;;;27.43;39.91
7986;BME280;4038;42.612;23.066;2022-09-06T06:16:14;93696.94;;;26.81;41.47
7986;BME280;4038;42.612;23.066;2022-09-06T06:18:40;93705.75;;;26.49;42.23
7986;BME280;4038;42.612;23.066;2022-09-06T06:21:17;93693.09;;;25.77;44.24
7986;BME280;4038;42.612;23.066;2022-09-06T06:23:49;93703.47;;;26.38;43.30
7986;BME280;4038;42.612;23.066;2022-09-06T06:26:15;93700.25;;;28.03;39.41
7986;BME280;4038;42.612;23.066;2022-09-06T06:28:41;93691.84;;;27.84;39.65
7986;BME280;4038;42.612;23.066;2022-09-06T06:31:09;93708.59;;;27.91;39.03
7986;BME280;4038;42.612;23.066;2022-09-06T06:33:37;93699.56;;;28.43;38.61
7986;BME280;4038;42.612;23.066;2022-09-06T06:36:04;93707.72;;;27.22;41.01
7986;BME280;4038;42.612;23.066;2022-09-06T06:38:39;93699.59;;;27.54;40.38
7986;BME280;4038;42.612;23.066;2022-09-06T06:41:06;93706.97;;;27.11;40.69
7986;BME280;4038;42.612;23.066;2022-09-06T06:43:35;93714.66;;;27.11;41.62
7986;BME280;4038;42.612;23.066;2022-09-06T06:46:10;93707.16;;;27.71;40.21
7986;BME280;4038;42.612;23.066;2022-09-06T06:48:37;93705.38;;;28.35;38.34
7986;BME280;4038;42.612;23.066;2022-09-06T06:51:08;93705.03;;;29.55;36.45
7986;BME280;4038;42.612;23.066;2022-09-06T06:53:39;93700.22;;;29.46;36.10
7986;BME280;4038;42.612;23.066;2022-09-06T06:56:20;93697.38;;;30.80;33.85
7986;BME280;4038;42.612;23.066;2022-09-06T06:58:52;93699.88;;;31.46;33.00
7986;BME280;4038;42.612;23.066;2022-09-06T07:01:20;93695.50;;;31.19;33.77
7986;BME280;4038;42.612;23.066;2022-09-06T07:03:49;93699.63;;;32.15;32.58
7986;BME280;4038;42.612;23.066;2022-09-06T07:06:22;93697.88;;;32.36;31.56
7986;BME280;4038;42.612;23.066;2022-09-06T07:08:58;93703.00;;;31.75;32.93
7986;BME280;4038;42.612;23.066;2022-09-06T07:11:26;93704.59;;;31.29;33.13
7986;BME280;4038;42.612;23.066;2022-09-06T07:13:55;93710.41;;;29.30;36.19
7986;BME280;4038;42.612;23.066;2022-09-06T07:16:22;93709.63;;;29.18;37.52
7986;BME280;4038;42.612;23.066;2022-09-06T07:18:53;93703.41;;;30.74;34.82
7986;BME280;4038;42.612;23.066;2022-09-06T07:21:23;93700.75;;;29.87;36.45
7986;BME280;4038;42.612;23.066;2022-09-06T07:23:59;93707.38;;;31.90;33.37
7986;BME280;4038;42.612;23.066;2022-09-06T07:26:29;93710.31;;;28.97;38.32
7986;BME280;4038;42.612;23.066;2022-09-06T07:29:00;93709.88;;;29.00;38.07
7986;BME280;4038;42.612;23.066;2022-09-06T07:31:27;93703.16;;;28.34;38.61
7986;BME280;4038;42.612;23.066;2022-09-06T07:34:07;93714.78;;;29.21;36.99
7986;BME280;4038;42.612;23.066;2022-09-06T07:36:32;93713.91;;;30.27;35.21
7986;BME280;4038;42.612;23.066;2022-09-06T07:38:59;93696.63;;;28.72;37.31
7986;BME280;4038;42.612;23.066;2022-09-06T07:41:25;93700.75;;;27.32;39.32
7986;BME280;4038;42.612;23.066;2022-09-06T07:43:53;93711.16;;;28.78;36.99
7986;BME280;4038;42.612;23.066;2022-09-06T07:46:19;93709.53;;;29.70;35.91
7986;BME280;4038;42.612;23.066;2022-09-06T07:48:46;93705.16;;;30.23;35.05
7986;BME280;4038;42.612;23.066;2022-09-06T07:51:13;93712.25;;;30.57;34.79
7986;BME280;4038;42.612;23.066;2022-09-06T07:53:42;93703.66;;;30.67;33.96
7986;BME280;4038;42.612;23.066;2022-09-06T07:56:10;93709.44;;;30.12;33.87
7986;BME280;4038;42.612;23.066;2022-09-06T07:58:42;93707.59;;;29.84;35.04
7986;BME280;4038;42.612;23.066;2022-09-06T08:03:53;93704.81;;;30.28;33.99
7986;BME280;4038;42.612;23.066;2022-09-06T08:06:21;93702.03;;;29.96;34.57
7986;BME280;4038;42.612;23.066;2022-09-06T08:08:49;93692.84;;;29.74;34.54
7986;BME280;4038;42.612;23.066;2022-09-06T08:11:22;93703.84;;;30.36;34.99
7986;BME280;4038;42.612;23.066;2022-09-06T08:13:49;93690.59;;;30.96;33.87
7986;BME280;4038;42.612;23.066;2022-09-06T08:16:17;93700.13;;;30.33;34.42
7986;BME280;4038;42.612;23.066;2022-09-06T08:18:43;93701.34;;;30.18;34.01
7986;BME280;4038;42.612;23.066;2022-09-06T08:21:11;93692.94;;;30.88;33.17
7986;BME280;4038;42.612;23.066;2022-09-06T08:23:38;93697.75;;;29.73;35.09
7986;BME280;4038;42.612;23.066;2022-09-06T08:26:07;93683.84;;;29.02;36.32
7986;BME280;4038;42.612;23.066;2022-09-06T08:28:33;93695.47;;;30.38;35.04
7986;BME280;4038;42.612;23.066;2022-09-06T08:31:12;93684.94;;;29.94;35.52
7986;BME280;4038;42.612;23.066;2022-09-06T08:33:39;93684.69;;;30.69;35.42
7986;BME280;4038;42.612;23.066;2022-09-06T08:36:08;93688.22;;;29.15;37.88
7986;BME280;4038;42.612;23.066;2022-09-06T08:38:37;93682.00;;;29.70;36.34
7986;BME280;4038;42.612;23.066;2022-09-06T08:41:20;93672.63;;;29.13;36.85
7986;BME280;4038;42.612;23.066;2022-09-06T08:43:58;93672.47;;;28.90;37.76
7986;BME280;4038;42.612;23.066;2022-09-06T08:46:37;93659.16;;;29.78;36.69
7986;BME280;4038;42.612;23.066;2022-09-06T08:49:04;93659.78;;;31.63;33.75
7986;BME280;4038;42.612;23.066;2022-09-06T09:00:05;93651.97;;;32.14;32.25
7986;BME280;4038;42.612;23.066;2022-09-06T09:02:46;93644.69;;;31.47;33.50
7986;BME280;4038;42.612;23.066;2022-09-06T09:05:27;93644.09;;;32.38;31.81
7986;BME280;4038;42.612;23.066;2022-09-06T09:11:07;93645.91;;;31.43;33.28
7986;BME280;4038;42.612;23.066;2022-09-06T09:13:51;93640.50;;;31.36;34.49
7986;BME280;4038;42.612;23.066;2022-09-06T09:16:18;93631.97;;;32.24;32.11
7986;BME280;4038;42.612;23.066;2022-09-06T09:18:50;93638.22;;;32.34;31.31
7986;BME280;4038;42.612;23.066;2022-09-06T09:21:20;93644.09;;;31.73;32.96
7986;BME280;4038;42.612;23.066;2022-09-06T09:23:58;93631.13;;;31.45;32.49
7986;BME280;4038;42.612;23.066;2022-09-06T09:26:34;93625.25;;;30.46;33.71
7986;BME280;4038;42.612;23.066;2022-09-06T09:29:12;93621.94;;;31.33;32.25
7986;BME280;4038;42.612;23.066;2022-09-06T09:31:41;93621.53;;;31.38;31.79
7986;BME280;4038;42.612;23.066;2022-09-06T09:34:33;93621.84;;;32.87;31.14
7986;BME280;4038;42.612;23.066;2022-09-06T09:37:23;93622.22;;;31.25;32.23
7986;BME280;4038;42.612;23.066;2022-09-06T09:39:57;93616.59;;;32.15;31.00
7986;BME280;4038;42.612;23.066;2022-09-06T09:42:33;93614.78;;;32.47;29.05
7986;BME280;4038;42.612;23.066;2022-09-06T09:45:00;93607.72;;;32.34;29.81
7986;BME280;4038;42.612;23.066;2022-09-06T09:47:35;93607.53;;;33.12;28.50
7986;BME280;4038;42.612;23.066;2022-09-06T09:50:25;93608.94;;;32.70;27.90
7986;BME280;4038;42.612;23.066;2022-09-06T09:52:51;93607.63;;;33.01;27.79
7986;BME280;4038;42.612;23.066;2022-09-06T09:55:22;93603.88;;;32.82;28.65
7986;BME280;4038;42.612;23.066;2022-09-06T09:57:49;93604.69;;;32.99;28.49
7986;BME280;4038;42.612;23.066;2022-09-06T10:00:35;93590.28;;;32.53;29.25
7986;BME280;4038;42.612;23.066;2022-09-06T10:03:14;93597.72;;;33.88;27.16
7986;BME280;4038;42.612;23.066;2022-09-06T10:05:41;93597.19;;;33.91;27.47
7986;BME280;4038;42.612;23.066;2022-09-06T10:08:21;93595.47;;;33.70;27.90
7986;BME280;4038;42.612;23.066;2022-09-06T10:10:48;93592.38;;;34.25;27.47
7986;BME280;4038;42.612;23.066;2022-09-06T10:13:28;93598.22;;;33.68;29.43
7986;BME280;4038;42.612;23.066;2022-09-06T10:15:55;93578.88;;;33.22;29.42
7986;BME280;4038;42.612;23.066;2022-09-06T10:18:31;93580.69;;;31.80;31.76
7986;BME280;4038;42.612;23.066;2022-09-06T10:20:59;93581.31;;;30.33;33.06
7986;BME280;4038;42.612;23.066;2022-09-06T10:23:53;93582.03;;;29.99;35.15
7986;BME280;4038;42.612;23.066;2022-09-06T10:29:38;93580.19;;;29.47;37.11
7986;BME280;4038;42.612;23.066;2022-09-06T10:32:41;93571.31;;;29.08;36.83
7986;BME280;4038;42.612;23.066;2022-09-06T10:35:29;93584.16;;;29.54;36.87
7986;BME280;4038;42.612;23.066;2022-09-06T10:38:16;93580.94;;;28.93;37.52
7986;BME280;4038;42.612;23.066;2022-09-06T10:43:27;93574.31;;;27.96;39.10
7986;BME280;4038;42.612;23.066;2022-09-06T10:46:06;93576.56;;;27.28;40.56
7986;BME280;4038;42.612;23.066;2022-09-06T10:48:38;93561.94;;;27.01;40.37
7986;BME280;4038;42.612;23.066;2022-09-06T10:51:14;93569.28;;;27.35;41.18
7986;BME280;4038;42.612;23.066;2022-09-06T10:59:26;93566.78;;;26.06;41.34
7986;BME280;4038;42.612;23.066;2022-09-06T11:04:48;93566.00;;;27.98;37.67
7986;BME280;4038;42.612;23.066;2022-09-06T11:07:27;93562.75;;;29.95;34.39
7986;BME280;4038;42.612;23.066;2022-09-06T11:10:02;93554.38;;;31.04;31.85
7986;BME280;4038;42.612;23.066;2022-09-06T11:12:48;93563.50;;;32.70;30.22
7986;BME280;4038;42.612;23.066;2022-09-06T11:15:23;93557.66;;;31.74;29.94
7986;BME280;4038;42.612;23.066;2022-09-06T11:18:22;93552.59;;;31.22;32.09
7986;BME280;4038;42.612;23.066;2022-09-06T11:21:29;93548.28;;;31.97;30.74
7986;BME280;4038;42.612;23.066;2022-09-06T11:29:25;93543.44;;;30.15;31.15
7986;BME280;4038;42.612;23.066;2022-09-06T11:31:54;93535.91;;;30.66;30.58
7986;BME280;4038;42.612;23.066;2022-09-06T11:37:02;93527.56;;;31.30;29.87
7986;BME280;4038;42.612;23.066;2022-09-06T11:39:40;93527.34;;;31.52;30.33
7986;BME280;4038;42.612;23.066;2022-09-06T11:42:39;93522.03;;;31.32;28.85
7986;BME280;4038;42.612;23.066;2022-09-06T11:45:37;93518.25;;;31.41;28.87
7986;BME280;4038;42.612;23.066;2022-09-06T11:50:59;93508.03;;;30.25;28.53
7986;BME280;4038;42.612;23.066;2022-09-06T11:53:34;93512.56;;;30.91;28.02
7986;BME280;4038;42.612;23.066;2022-09-06T11:56:29;93506.69;;;31.63;26.92
7986;BME280;4038;42.612;23.066;2022-09-06T11:59:11;93507.75;;;31.30;27.87
7986;BME280;4038;42.612;23.066;2022-09-06T12:02:02;93508.16;;;32.57;26.18
7986;BME280;4038;42.612;23.066;2022-09-06T12:07:30;93502.59;;;32.73;25.00
7986;BME280;4038;42.612;23.066;2022-09-06T12:12:48;93495.69;;;30.56;26.60
7986;BME280;4038;42.612;23.066;2022-09-06T12:15:44;93491.84;;;31.90;24.85
7986;BME280;4038;42.612;23.066;2022-09-06T12:21:39;93487.03;;;32.06;24.54
7986;BME280;4038;42.612;23.066;2022-09-06T12:29:36;93484.09;;;32.58;24.16
7986;BME280;4038;42.612;23.066;2022-09-06T12:32:05;93486.50;;;31.96;24.61
7986;BME280;4038;42.612;23.066;2022-09-06T12:34:34;93484.53;;;32.26;24.92
7986;BME280;4038;42.612;23.066;2022-09-06T12:37:04;93488.31;;;32.44;25.46
7986;BME280;4038;42.612;23.066;2022-09-06T12:39:32;93475.72;;;32.20;24.64
7986;BME280;4038;42.612;23.066;2022-09-06T12:42:07;93476.78;;;32.97;24.35
7986;BME280;4038;42.612;23.066;2022-09-06T12:44:41;93469.31;;;32.33;24.74
7986;BME280;4038;42.612;23.066;2022-09-06T12:47:15;93466.03;;;30.45;26.81
7986;BME280;4038;42.612;23.066;2022-09-06T12:49:44;93468.94;;;29.99;27.50
7986;BME280;4038;42.612;23.066;2022-09-06T12:52:15;93466.47;;;30.05;27.84
7986;BME280;4038;42.612;23.066;2022-09-06T12:54:48;93455.56;;;29.20;29.49
7986;BME280;4038;42.612;23.066;2022-09-06T12:57:20;93454.25;;;28.33;30.32
7986;BME280;4038;42.612;23.066;2022-09-06T12:59:55;93464.09;;;28.65;29.79
7986;BME280;4038;42.612;23.066;2022-09-06T13:02:37;93468.38;;;28.88;30.59
7986;BME280;4038;42.612;23.066;2022-09-06T13:05:08;93460.16;;;28.59;30.29
7986;BME280;4038;42.612;23.066;2022-09-06T13:07:40;93456.09;;;28.62;30.09
7986;BME280;4038;42.612;23.066;2022-09-06T13:10:16;93462.16;;;28.25;31.17
7986;BME280;4038;42.612;23.066;2022-09-06T13:12:45;93454.88;;;27.80;32.52
7986;BME280;4038;42.612;23.066;2022-09-06T13:15:21;93458.06;;;27.14;35.67
7986;BME280;4038;42.612;23.066;2022-09-06T13:17:50;93452.34;;;26.35;37.54
7986;BME280;4038;42.612;23.066;2022-09-06T13:20:26;93459.47;;;26.65;37.16
7986;BME280;4038;42.612;23.066;2022-09-06T13:23:09;93459.72;;;26.21;37.55
7986;BME280;4038;42.612;23.066;2022-09-06T13:25:50;93467.72;;;26.44;37.17
7986;BME280;4038;42.612;23.066;2022-09-06T13:28:29;93462.09;;;26.54;37.35
7986;BME280;4038;42.612;23.066;2022-09-06T13:33:28;93464.28;;;26.07;38.71
7986;BME280;4038;42.612;23.066;2022-09-06T13:41:04;93459.19;;;25.40;40.39
7986;BME280;4038;42.612;23.066;2022-09-06T13:43:30;93465.94;;;25.27;41.28
7986;BME280;4038;42.612;23.066;2022-09-06T13:46:07;93464.03;;;24.86;42.41
7986;BME280;4038;42.612;23.066;2022-09-06T13:48:34;93461.97;;;25.04;42.06
7986;BME280;4038;42.612;23.066;2022-09-06T13:51:03;93454.19;;;25.12;41.45
7986;BME280;4038;42.612;23.066;2022-09-06T13:53:29;93461.53;;;25.34;40.99
7986;BME280;4038;42.612;23.066;2022-09-06T13:55:56;93457.06;;;25.58;40.77
7986;BME280;4038;42.612;23.066;2022-09-06T13:58:21;93462.09;;;25.59;40.75
7986;BME280;4038;42.612;23.066;2022-09-06T14:00:47;93460.19;;;25.62;40.84
7986;BME280;4038;42.612;23.066;2022-09-06T14:03:33;93455.81;;;25.42;41.47
7986;BME280;4038;42.612;23.066;2022-09-06T14:05:59;93454.81;;;25.20;42.08
7986;BME280;4038;42.612;23.066;2022-09-06T14:08:26;93447.22;;;25.40;41.27
7986;BME280;4038;42.612;23.066;2022-09-06T14:10:52;93445.41;;;25.61;41.39
7986;BME280;4038;42.612;23.066;2022-09-06T14:13:18;93444.66;;;25.61;41.39
7986;BME280;4038;42.612;23.066;2022-09-06T14:15:45;93446.75;;;25.70;40.95
7986;BME280;4038;42.612;23.066;2022-09-06T14:18:12;93455.28;;;25.26;42.38
7986;BME280;4038;42.612;23.066;2022-09-06T14:20:37;93448.31;;;25.54;42.55
7986;BME280;4038;42.612;23.066;2022-09-06T14:23:03;93455.16;;;25.60;42.07
7986;BME280;4038;42.612;23.066;2022-09-06T14:25:29;93457.38;;;25.62;42.19
7986;BME280;4038;42.612;23.066;2022-09-06T14:27:55;93461.09;;;25.74;41.63
7986;BME280;4038;42.612;23.066;2022-09-06T14:30:23;93452.28;;;25.51;41.87
7986;BME280;4038;42.612;23.066;2022-09-06T14:32:48;93439.72;;;24.88;43.13
7986;BME280;4038;42.612;23.066;2022-09-06T14:35:14;93451.06;;;25.71;41.44
7986;BME280;4038;42.612;23.066;2022-09-06T14:37:39;93448.25;;;25.35;42.63
7986;BME280;4038;42.612;23.066;2022-09-06T14:40:05;93441.44;;;25.64;42.40
7986;BME280;4038;42.612;23.066;2022-09-06T14:42:35;93448.31;;;26.00;41.28
7986;BME280;4038;42.612;23.066;2022-09-06T14:45:00;93443.78;;;25.68;42.10
7986;BME280;4038;42.612;23.066;2022-09-06T14:47:29;93446.19;;;25.45;41.82
7986;BME280;4038;42.612;23.066;2022-09-06T14:49:56;93450.50;;;25.46;42.12
7986;BME280;4038;42.612;23.066;2022-09-06T14:52:21;93443.50;;;25.27;42.26
7986;BME280;4038;42.612;23.066;2022-09-06T14:54:47;93430.44;;;25.22;41.86